sensor_id;sensor_type;location;lat;lon;timestamp;P1;durP1;ratioP1;P2;durP2;ratioP2
14251;SDS011;7210;51.502;10.722;2023-08-30T00:03:29;3.57;;;3.27;;
14251;SDS011;7210;51.502;10.722;2023-08-30T00:10:22;4.67;;;4.27;;
14251;SDS011;7210;51.502;10.722;2023-08-30T00:19:36;7.47;;;4.53;;
14251;SDS011;7210;51.502;10.722;2023-08-30T00:26:10;7.03;;;4.50;;
14251;SDS011;7210;51.502;10.722;2023-08-30T00:32:44;5.60;;;5.10;;
14251;SDS011;7210;51.502;10.722;2023-08-30T00:39:19;7.27;;;4.87;;
14251;SDS011;7210;51.502;10.722;2023-08-30T00:45:53;4.47;;;3.97;;
14251;SDS011;7210;51.502;10.722;2023-08-30T00:52:27;4.60;;;4.20;;
14251;SDS011;7210;51.502;10.722;2023-08-30T01:07:15;4.10;;;3.80;;
14251;SDS011;7210;51.502;10.722;2023-08-30T01:13:53;4.13;;;3.63;;
14251;SDS011;7210;51.502;10.722;2023-08-30T01:20:33;4.17;;;3.70;;
14251;SDS011;7210;51.502;10.722;2023-08-30T01:27:12;4.10;;;3.67;;
14251;SDS011;7210;51.502;10.722;2023-08-30T01:29:44;4.00;;;3.70;;
14251;SDS011;7210;51.502;10.722;2023-08-30T01:36:19;4.53;;;3.67;;
14251;SDS011;7210;51.502;10.722;2023-08-30T01:42:54;5.40;;;3.50;;
14251;SDS011;7210;51.502;10.722;2023-08-30T01:49:30;4.40;;;3.37;;
14251;SDS011;7210;51.502;10.722;2023-08-30T01:59:54;4.27;;;3.90;;
14251;SDS011;7210;51.502;10.722;2023-08-30T02:10:35;2.60;;;2.40;;
14251;SDS011;7210;51.502;10.722;2023-08-30T02:20:39;5.83;;;3.00;;
14251;SDS011;7210;51.502;10.722;2023-08-30T02:27:13;3.47;;;2.60;;
14251;SDS011;7210;51.502;10.722;2023-08-30T02:33:47;2.20;;;2.10;;
14251;SDS011;7210;51.502;10.722;2023-08-30T02:36:16;5.30;;;2.40;;
14251;SDS011;7210;51.502;10.722;2023-08-30T02:42:49;2.63;;;2.43;;
14251;SDS011;7210;51.502;10.722;2023-08-30T02:49:25;2.37;;;2.13;;
14251;SDS011;7210;51.502;10.722;2023-08-30T02:56:00;2.20;;;2.10;;
14251;SDS011;7210;51.502;10.722;2023-08-30T02:58:28;3.07;;;2.73;;
14251;SDS011;7210;51.502;10.722;2023-08-30T03:00:59;3.07;;;2.70;;
14251;SDS011;7210;51.502;10.722;2023-08-30T03:07:34;4.30;;;2.83;;
14251;SDS011;7210;51.502;10.722;2023-08-30T03:14:09;4.07;;;3.43;;
14251;SDS011;7210;51.502;10.722;2023-08-30T03:20:43;5.17;;;4.77;;
14251;SDS011;7210;51.502;10.722;2023-08-30T03:27:16;4.40;;;4.10;;
14251;SDS011;7210;51.502;10.722;2023-08-30T03:33:52;3.70;;;3.40;;
14251;SDS011;7210;51.502;10.722;2023-08-30T03:40:26;2.93;;;2.73;;
14251;SDS011;7210;51.502;10.722;2023-08-30T03:47:00;4.17;;;2.57;;
14251;SDS011;7210;51.502;10.722;2023-08-30T03:53:35;5.07;;;2.73;;
14251;SDS011;7210;51.502;10.722;2023-08-30T04:00:10;3.50;;;3.20;;
14251;SDS011;7210;51.502;10.722;2023-08-30T04:10:54;4.83;;;3.27;;
14251;SDS011;7210;51.502;10.722;2023-08-30T04:29:48;3.80;;;3.40;;
14251;SDS011;7210;51.502;10.722;2023-08-30T04:36:22;4.37;;;2.80;;
14251;SDS011;7210;51.502;10.722;2023-08-30T04:51:11;6.03;;;3.70;;
14251;SDS011;7210;51.502;10.722;2023-08-30T04:57:07;4.30;;;3.30;;
14251;SDS011;7210;51.502;10.722;2023-08-30T04:59:49;4.57;;;3.10;;
14251;SDS011;7210;51.502;10.722;2023-08-30T05:09:21;3.30;;;3.00;;
14251;SDS011;7210;51.502;10.722;2023-08-30T05:31:43;3.60;;;3.30;;
14251;SDS011;7210;51.502;10.722;2023-08-30T05:34:40;4.20;;;3.30;;
14251;SDS011;7210;51.502;10.722;2023-08-30T05:37:25;5.53;;;3.50;;
14251;SDS011;7210;51.502;10.722;2023-08-30T05:43:13;3.80;;;3.50;;
14251;SDS011;7210;51.502;10.722;2023-08-30T05:45:45;4.40;;;4.00;;
14251;SDS011;7210;51.502;10.722;2023-08-30T05:57:28;4.83;;;4.43;;
14251;SDS011;7210;51.502;10.722;2023-08-30T05:59:58;4.40;;;4.00;;
14251;SDS011;7210;51.502;10.722;2023-08-30T06:02:33;8.13;;;4.73;;
14251;SDS011;7210;51.502;10.722;2023-08-30T06:05:13;5.00;;;4.57;;
14251;SDS011;7210;51.502;10.722;2023-08-30T06:07:43;5.23;;;4.83;;
14251;SDS011;7210;51.502;10.722;2023-08-30T06:10:11;5.03;;;4.63;;
14251;SDS011;7210;51.502;10.722;2023-08-30T06:12:49;5.70;;;5.10;;
14251;SDS011;7210;51.502;10.722;2023-08-30T06:15:25;6.13;;;4.37;;
14251;SDS011;7210;51.502;10.722;2023-08-30T06:18:09;5.03;;;4.60;;
14251;SDS011;7210;51.502;10.722;2023-08-30T06:20:43;5.07;;;4.57;;
14251;SDS011;7210;51.502;10.722;2023-08-30T06:23:11;6.07;;;4.93;;
14251;SDS011;7210;51.502;10.722;2023-08-30T06:29:01;5.23;;;4.73;;
14251;SDS011;7210;51.502;10.722;2023-08-30T06:31:37;5.63;;;4.30;;
14251;SDS011;7210;51.502;10.722;2023-08-30T06:34:09;7.53;;;4.60;;
14251;SDS011;7210;51.502;10.722;2023-08-30T06:36:36;5.03;;;4.20;;
14251;SDS011;7210;51.502;10.722;2023-08-30T06:39:13;6.30;;;4.50;;
14251;SDS011;7210;51.502;10.722;2023-08-30T06:41:49;5.33;;;4.30;;
14251;SDS011;7210;51.502;10.722;2023-08-30T06:44:19;5.90;;;4.07;;
14251;SDS011;7210;51.502;10.722;2023-08-30T06:46:47;4.43;;;3.90;;
14251;SDS011;7210;51.502;10.722;2023-08-30T06:59:01;4.77;;;3.43;;
14251;SDS011;7210;51.502;10.722;2023-08-30T07:01:31;5.13;;;3.87;;
14251;SDS011;7210;51.502;10.722;2023-08-30T07:07:03;6.27;;;4.60;;
14251;SDS011;7210;51.502;10.722;2023-08-30T07:09:43;6.17;;;4.77;;
14251;SDS011;7210;51.502;10.722;2023-08-30T07:12:19;4.87;;;4.47;;
14251;SDS011;7210;51.502;10.722;2023-08-30T07:25:55;3.93;;;3.63;;
14251;SDS011;7210;51.502;10.722;2023-08-30T07:28:32;4.10;;;3.80;;
14251;SDS011;7210;51.502;10.722;2023-08-30T07:31:13;6.27;;;4.30;;
14251;SDS011;7210;51.502;10.722;2023-08-30T07:36:49;5.60;;;3.80;;
14251;SDS011;7210;51.502;10.722;2023-08-30T07:39:27;4.10;;;3.70;;
14251;SDS011;7210;51.502;10.722;2023-08-30T07:47:40;4.50;;;4.10;;
14251;SDS011;7210;51.502;10.722;2023-08-30T07:50:13;4.20;;;3.80;;
14251;SDS011;7210;51.502;10.722;2023-08-30T07:52:44;5.10;;;3.67;;
14251;SDS011;7210;51.502;10.722;2023-08-30T07:58:16;6.20;;;3.60;;
14251;SDS011;7210;51.502;10.722;2023-08-30T08:00:44;5.07;;;3.70;;
14251;SDS011;7210;51.502;10.722;2023-08-30T08:06:16;3.60;;;3.30;;
14251;SDS011;7210;51.502;10.722;2023-08-30T08:08:55;3.43;;;3.00;;
14251;SDS011;7210;51.502;10.722;2023-08-30T08:11:27;3.93;;;3.53;;
14251;SDS011;7210;51.502;10.722;2023-08-30T08:13:55;3.70;;;3.40;;
14251;SDS011;7210;51.502;10.722;2023-08-30T08:16:25;3.97;;;3.43;;
14251;SDS011;7210;51.502;10.722;2023-08-30T08:18:55;4.37;;;3.93;;
14251;SDS011;7210;51.502;10.722;2023-08-30T08:21:31;4.43;;;3.40;;
14251;SDS011;7210;51.502;10.722;2023-08-30T08:24:01;4.50;;;4.10;;
14251;SDS011;7210;51.502;10.722;2023-08-30T08:29:31;5.00;;;4.43;;
14251;SDS011;7210;51.502;10.722;2023-08-30T08:35:31;4.70;;;4.07;;
14251;SDS011;7210;51.502;10.722;2023-08-30T08:41:26;4.33;;;3.93;;
14251;SDS011;7210;51.502;10.722;2023-08-30T08:44:09;4.47;;;4.07;;
14251;SDS011;7210;51.502;10.722;2023-08-30T08:49:34;5.13;;;4.47;;
14251;SDS011;7210;51.502;10.722;2023-08-30T08:52:07;4.90;;;4.50;;
14251;SDS011;7210;51.502;10.722;2023-08-30T08:57:52;4.87;;;4.10;;
14251;SDS011;7210;51.502;10.722;2023-08-30T09:00:22;8.83;;;4.27;;
14251;SDS011;7210;51.502;10.722;2023-08-30T09:02:50;6.33;;;4.20;;
14251;SDS011;7210;51.502;10.722;2023-08-30T09:16:00;4.63;;;4.13;;
14251;SDS011;7210;51.502;10.722;2023-08-30T09:21:50;4.57;;;3.80;;
14251;SDS011;7210;51.502;10.722;2023-08-30T09:39:31;3.97;;;3.20;;
14251;SDS011;7210;51.502;10.722;2023-08-30T09:44:56;4.97;;;3.23;;
14251;SDS011;7210;51.502;10.722;2023-08-30T09:47:31;4.70;;;3.20;;
14251;SDS011;7210;51.502;10.722;2023-08-30T09:50:15;5.03;;;3.30;;
14251;SDS011;7210;51.502;10.722;2023-08-30T09:59:05;3.23;;;2.67;;
14251;SDS011;7210;51.502;10.722;2023-08-30T10:05:57;3.70;;;2.50;;
14251;SDS011;7210;51.502;10.722;2023-08-30T10:11:18;4.00;;;2.40;;
14251;SDS011;7210;51.502;10.722;2023-08-30T10:16:37;5.37;;;2.90;;
14251;SDS011;7210;51.502;10.722;2023-08-30T10:19:14;3.17;;;2.50;;
14251;SDS011;7210;51.502;10.722;2023-08-30T10:21:52;2.63;;;2.33;;
14251;SDS011;7210;51.502;10.722;2023-08-30T10:24:38;2.80;;;2.50;;
14251;SDS011;7210;51.502;10.722;2023-08-30T10:27:19;3.00;;;2.73;;
14251;SDS011;7210;51.502;10.722;2023-08-30T10:32:44;5.03;;;2.97;;
14251;SDS011;7210;51.502;10.722;2023-08-30T10:53:37;4.27;;;3.87;;
14251;SDS011;7210;51.502;10.722;2023-08-30T10:56:19;4.37;;;4.07;;
14251;SDS011;7210;51.502;10.722;2023-08-30T10:59:18;4.67;;;4.20;;
14251;SDS011;7210;51.502;10.722;2023-08-30T11:01:55;5.80;;;5.17;;
14251;SDS011;7210;51.502;10.722;2023-08-30T11:04:31;6.20;;;5.63;;
14251;SDS011;7210;51.502;10.722;2023-08-30T11:13:37;5.30;;;4.90;;
14251;SDS011;7210;51.502;10.722;2023-08-30T11:16:24;6.37;;;5.87;;
14251;SDS011;7210;51.502;10.722;2023-08-30T11:21:44;6.70;;;6.20;;
14251;SDS011;7210;51.502;10.722;2023-08-30T11:24:12;6.60;;;6.10;;
14251;SDS011;7210;51.502;10.722;2023-08-30T11:26:43;6.10;;;5.60;;
14251;SDS011;7210;51.502;10.722;2023-08-30T11:51:49;6.70;;;4.50;;
14251;SDS011;7210;51.502;10.722;2023-08-30T11:54:25;4.73;;;4.33;;
14251;SDS011;7210;51.502;10.722;2023-08-30T11:56:56;5.77;;;4.90;;
14251;SDS011;7210;51.502;10.722;2023-08-30T11:59:25;5.40;;;5.00;;
14251;SDS011;7210;51.502;10.722;2023-08-30T12:04:57;4.63;;;4.30;;
14251;SDS011;7210;51.502;10.722;2023-08-30T12:10:25;5.00;;;4.43;;
14251;SDS011;7210;51.502;10.722;2023-08-30T12:22:09;4.33;;;4.03;;
14251;SDS011;7210;51.502;10.722;2023-08-30T12:27:29;4.38;;;3.97;;
14251;SDS011;7210;51.502;10.722;2023-08-30T12:30:08;4.27;;;3.97;;
14251;SDS011;7210;51.502;10.722;2023-08-30T12:35:59;6.57;;;3.90;;
14251;SDS011;7210;51.502;10.722;2023-08-30T12:38:33;4.07;;;3.77;;
14251;SDS011;7210;51.502;10.722;2023-08-30T12:45:08;3.50;;;3.20;;
14251;SDS011;7210;51.502;10.722;2023-08-30T12:50:38;3.20;;;3.00;;
14251;SDS011;7210;51.502;10.722;2023-08-30T12:53:05;3.13;;;2.90;;
14251;SDS011;7210;51.502;10.722;2023-08-30T12:58:36;3.30;;;3.00;;
14251;SDS011;7210;51.502;10.722;2023-08-30T13:01:03;3.63;;;3.33;;
14251;SDS011;7210;51.502;10.722;2023-08-30T13:03:30;3.97;;;3.40;;
14251;SDS011;7210;51.502;10.722;2023-08-30T13:05:58;4.70;;;3.90;;
14251;SDS011;7210;51.502;10.722;2023-08-30T13:08:31;4.57;;;4.17;;
14251;SDS011;7210;51.502;10.722;2023-08-30T13:13:55;4.30;;;3.90;;
14251;SDS011;7210;51.502;10.722;2023-08-30T13:19:31;3.33;;;3.13;;
14251;SDS011;7210;51.502;10.722;2023-08-30T13:22:13;3.50;;;3.10;;
14251;SDS011;7210;51.502;10.722;2023-08-30T13:24:43;3.30;;;3.00;;
14251;SDS011;7210;51.502;10.722;2023-08-30T13:27:27;3.30;;;3.00;;
14251;SDS011;7210;51.502;10.722;2023-08-30T13:32:43;3.53;;;3.33;;
14251;SDS011;7210;51.502;10.722;2023-08-30T13:35:13;3.53;;;3.33;;
14251;SDS011;7210;51.502;10.722;2023-08-30T13:37:41;4.75;;;3.90;;
14251;SDS011;7210;51.502;10.722;2023-08-30T13:40:13;4.18;;;3.78;;
14251;SDS011;7210;51.502;10.722;2023-08-30T13:48:37;5.60;;;4.07;;
14251;SDS011;7210;51.502;10.722;2023-08-30T13:51:13;3.75;;;3.45;;
14251;SDS011;7210;51.502;10.722;2023-08-30T13:56:37;5.90;;;4.00;;
14251;SDS011;7210;51.502;10.722;2023-08-30T13:59:09;5.20;;;3.63;;
14251;SDS011;7210;51.502;10.722;2023-08-30T14:01:37;4.40;;;4.00;;
14251;SDS011;7210;51.502;10.722;2023-08-30T14:04:19;7.57;;;4.17;;
14251;SDS011;7210;51.502;10.722;2023-08-30T14:06:55;6.63;;;4.17;;
14251;SDS011;7210;51.502;10.722;2023-08-30T14:15:57;4.80;;;4.40;;
14251;SDS011;7210;51.502;10.722;2023-08-30T14:18:24;7.50;;;6.10;;
14251;SDS011;7210;51.502;10.722;2023-08-30T14:23:55;6.00;;;5.50;;
14251;SDS011;7210;51.502;10.722;2023-08-30T14:26:37;5.27;;;4.77;;
14251;SDS011;7210;51.502;10.722;2023-08-30T14:29:13;5.83;;;5.27;;
14251;SDS011;7210;51.502;10.722;2023-08-30T14:31:43;5.47;;;5.07;;
14251;SDS011;7210;51.502;10.722;2023-08-30T14:37:13;5.30;;;4.10;;
14251;SDS011;7210;51.502;10.722;2023-08-30T14:39:41;4.30;;;3.90;;
14251;SDS011;7210;51.502;10.722;2023-08-30T14:42:08;5.47;;;3.80;;
14251;SDS011;7210;51.502;10.722;2023-08-30T14:44:35;3.63;;;3.33;;
14251;SDS011;7210;51.502;10.722;2023-08-30T14:47:04;3.73;;;3.43;;
14251;SDS011;7210;51.502;10.722;2023-08-30T14:49:31;3.47;;;3.10;;
14251;SDS011;7210;51.502;10.722;2023-08-30T14:51:59;3.40;;;3.10;;
14251;SDS011;7210;51.502;10.722;2023-08-30T14:54:26;3.50;;;3.20;;
14251;SDS011;7210;51.502;10.722;2023-08-30T14:56:53;3.70;;;3.33;;
14251;SDS011;7210;51.502;10.722;2023-08-30T14:59:21;4.20;;;3.80;;
14251;SDS011;7210;51.502;10.722;2023-08-30T15:01:49;3.90;;;3.60;;
14251;SDS011;7210;51.502;10.722;2023-08-30T15:04:18;4.53;;;4.13;;
14251;SDS011;7210;51.502;10.722;2023-08-30T15:06:46;4.37;;;3.97;;
14251;SDS011;7210;51.502;10.722;2023-08-30T15:09:13;5.03;;;4.53;;
14251;SDS011;7210;51.502;10.722;2023-08-30T15:11:41;4.80;;;4.40;;
14251;SDS011;7210;51.502;10.722;2023-08-30T15:14:08;5.00;;;4.60;;
14251;SDS011;7210;51.502;10.722;2023-08-30T15:16:36;4.60;;;4.30;;
14251;SDS011;7210;51.502;10.722;2023-08-30T15:19:03;4.30;;;4.00;;
14251;SDS011;7210;51.502;10.722;2023-08-30T15:21:32;4.23;;;3.87;;
14251;SDS011;7210;51.502;10.722;2023-08-30T15:23:59;4.40;;;4.00;;
14251;SDS011;7210;51.502;10.722;2023-08-30T15:26:31;6.13;;;4.30;;
14251;SDS011;7210;51.502;10.722;2023-08-30T15:28:59;4.23;;;3.93;;
14251;SDS011;7210;51.502;10.722;2023-08-30T15:31:26;5.07;;;4.67;;
14251;SDS011;7210;51.502;10.722;2023-08-30T15:33:53;5.03;;;4.63;;
14251;SDS011;7210;51.502;10.722;2023-08-30T15:36:21;4.30;;;3.90;;
14251;SDS011;7210;51.502;10.722;2023-08-30T15:38:49;11.63;;;4.40;;
14251;SDS011;7210;51.502;10.722;2023-08-30T15:41:16;3.70;;;3.40;;
14251;SDS011;7210;51.502;10.722;2023-08-30T15:43:44;5.43;;;3.50;;
14251;SDS011;7210;51.502;10.722;2023-08-30T15:46:11;7.40;;;3.63;;
14251;SDS011;7210;51.502;10.722;2023-08-30T15:48:39;15.60;;;7.87;;
14251;SDS011;7210;51.502;10.722;2023-08-30T15:51:07;6.80;;;4.07;;
14251;SDS011;7210;51.502;10.722;2023-08-30T15:53:35;14.23;;;7.83;;
14251;SDS011;7210;51.502;10.722;2023-08-30T15:56:09;16.03;;;7.60;;
14251;SDS011;7210;51.502;10.722;2023-08-30T15:58:36;5.03;;;4.53;;
14251;SDS011;7210;51.502;10.722;2023-08-30T16:01:03;4.40;;;4.00;;
14251;SDS011;7210;51.502;10.722;2023-08-30T16:03:31;5.40;;;4.40;;
14251;SDS011;7210;51.502;10.722;2023-08-30T16:06:00;4.43;;;4.00;;
14251;SDS011;7210;51.502;10.722;2023-08-30T16:08:28;4.67;;;4.03;;
14251;SDS011;7210;51.502;10.722;2023-08-30T16:11:01;5.03;;;4.00;;
14251;SDS011;7210;51.502;10.722;2023-08-30T16:13:30;5.27;;;4.30;;
14251;SDS011;7210;51.502;10.722;2023-08-30T16:15:57;4.50;;;4.10;;
14251;SDS011;7210;51.502;10.722;2023-08-30T16:18:25;5.07;;;4.47;;
14251;SDS011;7210;51.502;10.722;2023-08-30T16:20:52;4.50;;;4.10;;
14251;SDS011;7210;51.502;10.722;2023-08-30T16:23:19;4.40;;;4.10;;
14251;SDS011;7210;51.502;10.722;2023-08-30T16:25:47;4.50;;;3.93;;
14251;SDS011;7210;51.502;10.722;2023-08-30T16:28:25;5.17;;;4.13;;
14251;SDS011;7210;51.502;10.722;2023-08-30T16:34:39;4.10;;;3.70;;
14251;SDS011;7210;51.502;10.722;2023-08-30T16:37:13;4.80;;;4.33;;
14251;SDS011;7210;51.502;10.722;2023-08-30T16:57:34;6.87;;;6.20;;
14251;SDS011;7210;51.502;10.722;2023-08-30T17:00:02;7.27;;;5.43;;
14251;SDS011;7210;51.502;10.722;2023-08-30T17:20:37;5.60;;;5.10;;
14251;SDS011;7210;51.502;10.722;2023-08-30T17:27:11;6.43;;;5.83;;
14251;SDS011;7210;51.502;10.722;2023-08-30T17:43:05;6.20;;;5.13;;
14251;SDS011;7210;51.502;10.722;2023-08-30T17:53:04;4.50;;;4.10;;
14251;SDS011;7210;51.502;10.722;2023-08-30T17:59:40;5.63;;;3.67;;
14251;SDS011;7210;51.502;10.722;2023-08-30T18:06:13;3.87;;;3.47;;
14251;SDS011;7210;51.502;10.722;2023-08-30T18:12:47;3.57;;;3.27;;
14251;SDS011;7210;51.502;10.722;2023-08-30T18:22:49;4.87;;;4.17;;
14251;SDS011;7210;51.502;10.722;2023-08-30T18:32:13;5.20;;;4.40;;
14251;SDS011;7210;51.502;10.722;2023-08-30T18:37:44;4.90;;;4.40;;
14251;SDS011;7210;51.502;10.722;2023-08-30T18:43:39;4.63;;;4.23;;
14251;SDS011;7210;51.502;10.722;2023-08-30T18:46:19;4.53;;;3.90;;
14251;SDS011;7210;51.502;10.722;2023-08-30T18:48:47;4.37;;;3.97;;
14251;SDS011;7210;51.502;10.722;2023-08-30T18:57:46;5.23;;;4.63;;
14251;SDS011;7210;51.502;10.722;2023-08-30T19:00:15;2.63;;;2.10;;
14251;SDS011;7210;51.502;10.722;2023-08-30T19:02:42;1.80;;;1.60;;
14251;SDS011;7210;51.502;10.722;2023-08-30T19:05:19;1.80;;;1.70;;
14251;SDS011;7210;51.502;10.722;2023-08-30T19:13:11;2.70;;;1.77;;
14251;SDS011;7210;51.502;10.722;2023-08-30T19:15:40;2.17;;;1.93;;
14251;SDS011;7210;51.502;10.722;2023-08-30T19:18:08;3.30;;;2.13;;
14251;SDS011;7210;51.502;10.722;2023-08-30T19:20:35;1.80;;;1.70;;
14251;SDS011;7210;51.502;10.722;2023-08-30T19:23:02;5.03;;;2.40;;
14251;SDS011;7210;51.502;10.722;2023-08-30T19:25:30;2.40;;;2.20;;
14251;SDS011;7210;51.502;10.722;2023-08-30T19:28:01;3.13;;;2.67;;
14251;SDS011;7210;51.502;10.722;2023-08-30T19:30:29;2.80;;;2.60;;
14251;SDS011;7210;51.502;10.722;2023-08-30T19:32:58;3.57;;;3.27;;
14251;SDS011;7210;51.502;10.722;2023-08-30T19:35:25;3.80;;;3.30;;
14251;SDS011;7210;51.502;10.722;2023-08-30T19:37:52;4.17;;;3.77;;
14251;SDS011;7210;51.502;10.722;2023-08-30T19:40:20;5.23;;;4.00;;
14251;SDS011;7210;51.502;10.722;2023-08-30T19:42:47;4.20;;;3.80;;
14251;SDS011;7210;51.502;10.722;2023-08-30T19:45:15;4.80;;;4.20;;
14251;SDS011;7210;51.502;10.722;2023-08-30T19:47:42;4.20;;;3.80;;
14251;SDS011;7210;51.502;10.722;2023-08-30T19:50:11;4.30;;;3.90;;
14251;SDS011;7210;51.502;10.722;2023-08-30T19:52:40;3.53;;;3.23;;
14251;SDS011;7210;51.502;10.722;2023-08-30T19:55:07;4.07;;;3.67;;
14251;SDS011;7210;51.502;10.722;2023-08-30T19:57:35;4.70;;;3.70;;
14251;SDS011;7210;51.502;10.722;2023-08-30T20:00:03;4.40;;;3.83;;
14251;SDS011;7210;51.502;10.722;2023-08-30T20:02:37;4.10;;;3.80;;
14251;SDS011;7210;51.502;10.722;2023-08-30T20:05:05;3.80;;;3.50;;
14251;SDS011;7210;51.502;10.722;2023-08-30T20:07:35;3.97;;;3.67;;
14251;SDS011;7210;51.502;10.722;2023-08-30T20:10:02;4.27;;;3.00;;
14251;SDS011;7210;51.502;10.722;2023-08-30T20:12:31;3.30;;;3.00;;
14251;SDS011;7210;51.502;10.722;2023-08-30T20:14:58;3.20;;;2.87;;
14251;SDS011;7210;51.502;10.722;2023-08-30T20:17:25;5.07;;;3.30;;
14251;SDS011;7210;51.502;10.722;2023-08-30T20:19:55;3.60;;;3.00;;
14251;SDS011;7210;51.502;10.722;2023-08-30T20:22:23;3.63;;;3.10;;
14251;SDS011;7210;51.502;10.722;2023-08-30T20:24:52;4.20;;;3.10;;
14251;SDS011;7210;51.502;10.722;2023-08-30T20:27:21;5.40;;;3.67;;
14251;SDS011;7210;51.502;10.722;2023-08-30T20:29:48;4.13;;;3.37;;
14251;SDS011;7210;51.502;10.722;2023-08-30T20:32:15;5.17;;;3.90;;
14251;SDS011;7210;51.502;10.722;2023-08-30T20:34:44;6.67;;;3.63;;
14251;SDS011;7210;51.502;10.722;2023-08-30T20:37:11;3.80;;;3.30;;
14251;SDS011;7210;51.502;10.722;2023-08-30T20:39:38;4.87;;;3.83;;
14251;SDS011;7210;51.502;10.722;2023-08-30T20:42:07;4.77;;;3.47;;
14251;SDS011;7210;51.502;10.722;2023-08-30T20:44:34;3.80;;;3.20;;
14251;SDS011;7210;51.502;10.722;2023-08-30T20:47:01;3.57;;;3.27;;
14251;SDS011;7210;51.502;10.722;2023-08-30T20:49:30;6.60;;;3.10;;
14251;SDS011;7210;51.502;10.722;2023-08-30T20:51:57;3.90;;;3.27;;
14251;SDS011;7210;51.502;10.722;2023-08-30T20:54:24;4.00;;;3.60;;
14251;SDS011;7210;51.502;10.722;2023-08-30T20:56:51;3.10;;;2.80;;
14251;SDS011;7210;51.502;10.722;2023-08-30T20:59:20;4.50;;;3.10;;
14251;SDS011;7210;51.502;10.722;2023-08-30T21:01:48;3.80;;;3.10;;
14251;SDS011;7210;51.502;10.722;2023-08-30T21:04:15;3.23;;;2.83;;
14251;SDS011;7210;51.502;10.722;2023-08-30T21:06:42;2.30;;;2.10;;
14251;SDS011;7210;51.502;10.722;2023-08-30T21:09:09;2.40;;;2.20;;
14251;SDS011;7210;51.502;10.722;2023-08-30T21:11:37;2.47;;;2.07;;
14251;SDS011;7210;51.502;10.722;2023-08-30T21:14:04;2.40;;;2.20;;
14251;SDS011;7210;51.502;10.722;2023-08-30T21:16:32;3.47;;;2.33;;
14251;SDS011;7210;51.502;10.722;2023-08-30T21:19:00;4.53;;;2.23;;
14251;SDS011;7210;51.502;10.722;2023-08-30T21:21:28;2.73;;;2.47;;
14251;SDS011;7210;51.502;10.722;2023-08-30T21:23:55;2.90;;;2.60;;
14251;SDS011;7210;51.502;10.722;2023-08-30T21:26:24;2.60;;;2.40;;
14251;SDS011;7210;51.502;10.722;2023-08-30T21:28:52;3.23;;;2.30;;
14251;SDS011;7210;51.502;10.722;2023-08-30T21:31:20;3.10;;;2.80;;
14251;SDS011;7210;51.502;10.722;2023-08-30T21:33:51;3.00;;;2.70;;
14251;SDS011;7210;51.502;10.722;2023-08-30T21:36:19;3.23;;;2.73;;
14251;SDS011;7210;51.502;10.722;2023-08-30T21:38:47;3.67;;;2.50;;
14251;SDS011;7210;51.502;10.722;2023-08-30T21:41:19;2.70;;;2.50;;
14251;SDS011;7210;51.502;10.722;2023-08-30T21:43:47;3.90;;;2.93;;
14251;SDS011;7210;51.502;10.722;2023-08-30T21:46:14;2.87;;;2.60;;
14251;SDS011;7210;51.502;10.722;2023-08-30T21:48:43;4.10;;;2.73;;
14251;SDS011;7210;51.502;10.722;2023-08-30T21:51:12;3.20;;;3.00;;
14251;SDS011;7210;51.502;10.722;2023-08-30T21:53:39;2.90;;;2.63;;
14251;SDS011;7210;51.502;10.722;2023-08-30T21:56:07;3.00;;;2.80;;
14251;SDS011;7210;51.502;10.722;2023-08-30T21:58:34;3.23;;;2.63;;
14251;SDS011;7210;51.502;10.722;2023-08-30T22:01:01;3.30;;;2.93;;
14251;SDS011;7210;51.502;10.722;2023-08-30T22:03:28;3.10;;;2.80;;
14251;SDS011;7210;51.502;10.722;2023-08-30T22:06:07;3.83;;;3.10;;
14251;SDS011;7210;51.502;10.722;2023-08-30T22:08:36;3.40;;;3.10;;
14251;SDS011;7210;51.502;10.722;2023-08-30T22:11:06;3.20;;;2.90;;
14251;SDS011;7210;51.502;10.722;2023-08-30T22:13:35;3.07;;;2.87;;
14251;SDS011;7210;51.502;10.722;2023-08-30T22:16:04;3.40;;;3.17;;
14251;SDS011;7210;51.502;10.722;2023-08-30T22:18:31;3.37;;;3.10;;
14251;SDS011;7210;51.502;10.722;2023-08-30T22:20:58;3.83;;;3.53;;
14251;SDS011;7210;51.502;10.722;2023-08-30T22:23:39;5.90;;;3.60;;
14251;SDS011;7210;51.502;10.722;2023-08-30T22:26:06;3.43;;;3.13;;
14251;SDS011;7210;51.502;10.722;2023-08-30T22:28:33;3.73;;;3.30;;
14251;SDS011;7210;51.502;10.722;2023-08-30T22:31:01;3.97;;;3.30;;
14251;SDS011;7210;51.502;10.722;2023-08-30T22:33:28;3.77;;;3.40;;
14251;SDS011;7210;51.502;10.722;2023-08-30T22:36:01;3.67;;;3.37;;
14251;SDS011;7210;51.502;10.722;2023-08-30T22:38:30;3.97;;;3.60;;
14251;SDS011;7210;51.502;10.722;2023-08-30T22:41:09;3.70;;;3.40;;
14251;SDS011;7210;51.502;10.722;2023-08-30T22:43:36;3.83;;;3.43;;
14251;SDS011;7210;51.502;10.722;2023-08-30T22:46:04;4.47;;;4.07;;
14251;SDS011;7210;51.502;10.722;2023-08-30T22:48:31;4.70;;;4.30;;
14251;SDS011;7210;51.502;10.722;2023-08-30T22:51:01;4.60;;;4.10;;
14251;SDS011;7210;51.502;10.722;2023-08-30T22:53:29;5.00;;;4.50;;
14251;SDS011;7210;51.502;10.722;2023-08-30T22:56:03;4.60;;;4.20;;
14251;SDS011;7210;51.502;10.722;2023-08-30T22:58:35;4.90;;;4.50;;
14251;SDS011;7210;51.502;10.722;2023-08-30T23:01:05;6.87;;;4.50;;
14251;SDS011;7210;51.502;10.722;2023-08-30T23:03:33;4.97;;;4.57;;
14251;SDS011;7210;51.502;10.722;2023-08-30T23:06:01;5.27;;;4.77;;
14251;SDS011;7210;51.502;10.722;2023-08-30T23:08:29;5.10;;;4.70;;
14251;SDS011;7210;51.502;10.722;2023-08-30T23:10:57;5.73;;;5.23;;
14251;SDS011;7210;51.502;10.722;2023-08-30T23:13:24;4.63;;;4.23;;
14251;SDS011;7210;51.502;10.722;2023-08-30T23:15:55;4.80;;;4.40;;
14251;SDS011;7210;51.502;10.722;2023-08-30T23:18:23;4.73;;;4.23;;
14251;SDS011;7210;51.502;10.722;2023-08-30T23:20:55;4.40;;;4.00;;
14251;SDS011;7210;51.502;10.722;2023-08-30T23:23:23;4.63;;;4.30;;
14251;SDS011;7210;51.502;10.722;2023-08-30T23:25:50;5.53;;;3.90;;
14251;SDS011;7210;51.502;10.722;2023-08-30T23:28:19;5.03;;;4.53;;
14251;SDS011;7210;51.502;10.722;2023-08-30T23:30:47;6.47;;;4.37;;
14251;SDS011;7210;51.502;10.722;2023-08-30T23:33:16;4.77;;;4.20;;
14251;SDS011;7210;51.502;10.722;2023-08-30T23:35:44;4.47;;;4.07;;
14251;SDS011;7210;51.502;10.722;2023-08-30T23:38:11;5.00;;;4.13;;
14251;SDS011;7210;51.502;10.722;2023-08-30T23:40:39;4.53;;;4.17;;
14251;SDS011;7210;51.502;10.722;2023-08-30T23:43:06;5.00;;;4.27;;
14251;SDS011;7210;51.502;10.722;2023-08-30T23:45:34;5.77;;;4.10;;
14251;SDS011;7210;51.502;10.722;2023-08-30T23:48:01;3.93;;;3.53;;
14251;SDS011;7210;51.502;10.722;2023-08-30T23:50:30;4.30;;;3.90;;
14251;SDS011;7210;51.502;10.722;2023-08-30T23:52:57;4.80;;;4.50;;
14251;SDS011;7210;51.502;10.722;2023-08-30T23:55:26;5.97;;;4.50;;
14251;SDS011;7210;51.502;10.722;2023-08-30T23:57:54;5.17;;;4.70;;
